CheckWX is a tool to help pilots better visualize weather data.  It is not intended as a substitute for an official pre-flight weather briefing.

04:32:06 UTC

KEWR METAR
Newark Liberty International Airport
Newark, New Jersey, USA
Current

41 mins ago

KEWR 250351Z 03007KT 10SM BKN250 16/04 A2989 RMK AO2 SLP121 T01560039
Observed
Apr-25 @ 03:51 UTC
Wind
  • 030° at 7 KTS
Visibility
10 SM
Flight Rules
VFR
Cloud Levels
  • Broken at 25,000' AGL
Temperature
16°C / 61°F
Dewpoint
C / 39°F
Humidity
45%
Altimeter
29.89" Hg
Pressure
1012.22 hPa
Previous

2 hours ago

KEWR 250251Z 03007KT 10SM BKN250 16/04 A2987 RMK AO2 SLP114 T01610044 51019
Observed
Apr-25 @ 02:51 UTC
Wind
  • 030° at 7 KTS
Visibility
10 SM
Flight Rules
VFR
Cloud Levels
  • Broken at 25,000' AGL
Temperature
16°C / 61°F
Dewpoint
C / 39°F
Humidity
45%
Altimeter
29.87" Hg
Pressure
1011.52 hPa
Previous

3 hours ago

KEWR 250151Z 31004KT 10SM BKN250 18/02 A2985 RMK AO2 SLP107 T01830022
Observed
Apr-25 @ 01:51 UTC
Wind
  • 310° at 4 KTS
Visibility
10 SM
Flight Rules
VFR
Cloud Levels
  • Broken at 25,000' AGL
Temperature
18°C / 64°F
Dewpoint
C / 36°F
Humidity
34%
Altimeter
29.85" Hg
Pressure
1010.82 hPa